createdAt,value
2022-08-24T04:01:47.758Z,5.30
2022-08-24T04:04:16.001Z,5.30
2022-08-24T04:06:46.743Z,5.20
2022-08-24T04:09:16.272Z,5.30
2022-08-24T04:11:45.959Z,5.23
2022-08-24T04:14:26.883Z,5.30
2022-08-24T04:16:57.914Z,5.27
2022-08-24T04:19:26.740Z,5.20
2022-08-24T04:21:58.585Z,5.30
2022-08-24T04:24:27.855Z,5.30
2022-08-24T04:26:56.220Z,5.27
2022-08-24T04:29:24.289Z,5.17
2022-08-24T04:31:53.532Z,5.17
2022-08-24T04:34:23.216Z,5.20
2022-08-24T04:36:51.335Z,5.27
2022-08-24T04:39:19.556Z,5.20
2022-08-24T04:41:47.805Z,5.13
2022-08-24T04:44:18.995Z,5.20
2022-08-24T04:46:47.049Z,5.17
2022-08-24T04:49:15.408Z,5.17
2022-08-24T04:51:45.087Z,5.10
2022-08-24T04:54:13.164Z,5.17
2022-08-24T04:56:41.425Z,5.13
2022-08-24T04:59:09.688Z,5.20
2022-08-24T05:01:37.796Z,5.20
2022-08-24T05:04:06.190Z,5.20
2022-08-24T05:06:34.939Z,5.13
2022-08-24T05:09:06.763Z,5.20
2022-08-24T05:11:37.185Z,5.17
2022-08-24T05:14:05.379Z,5.20
2022-08-24T05:16:37.652Z,5.50
2022-08-24T05:19:08.087Z,5.20
2022-08-24T05:21:36.223Z,5.50
2022-08-24T05:24:06.233Z,5.30
2022-08-24T05:26:34.357Z,5.17
2022-08-24T05:29:04.154Z,5.10
2022-08-24T05:31:34.126Z,5.17
2022-08-24T05:34:04.404Z,5.17
2022-08-24T05:36:37.957Z,5.20
2022-08-24T05:39:11.784Z,5.20
2022-08-24T05:41:41.765Z,5.20
2022-08-24T05:44:15.205Z,5.20
2022-08-24T05:46:44.097Z,5.23
2022-08-24T05:49:12.862Z,5.27
2022-08-24T05:51:42.607Z,5.30
2022-08-24T05:54:14.423Z,5.27
2022-08-24T05:56:42.892Z,5.30
2022-08-24T05:59:11.052Z,5.30
2022-08-24T06:01:44.597Z,5.93
2022-08-24T06:04:13.679Z,5.37
2022-08-24T06:06:42.146Z,5.27
2022-08-24T06:09:13.167Z,5.30
2022-08-24T06:11:43.040Z,5.30
2022-08-24T06:14:14.631Z,5.30
2022-08-24T06:16:47.118Z,5.27
2022-08-24T06:19:18.941Z,5.30
2022-08-24T06:21:52.103Z,5.30
2022-08-24T06:24:45.268Z,5.30
2022-08-24T06:27:22.401Z,5.30
2022-08-24T06:29:53.097Z,5.30
2022-08-24T06:32:21.946Z,5.30
2022-08-24T06:34:50.382Z,5.30
2022-08-24T06:37:19.103Z,5.27
2022-08-24T06:39:55.969Z,5.23
2022-08-24T06:42:25.767Z,5.30
2022-08-24T06:44:54.219Z,5.30
2022-08-24T06:47:22.567Z,5.20
2022-08-24T06:49:50.779Z,5.30
2022-08-24T06:52:19.184Z,5.33
2022-08-24T06:54:47.334Z,5.60
2022-08-24T06:57:16.837Z,5.30
2022-08-24T06:59:45.208Z,5.20
2022-08-24T07:02:15.835Z,5.30
2022-08-24T07:04:43.907Z,5.27
2022-08-24T07:07:12.134Z,5.23
2022-08-24T07:09:40.529Z,5.30
2022-08-24T07:12:09.433Z,5.17
2022-08-24T07:14:38.892Z,6.37
2022-08-24T07:17:06.997Z,5.17
2022-08-24T07:19:35.293Z,5.13
2022-08-24T07:22:03.437Z,5.20
2022-08-24T07:24:32.245Z,5.27
2022-08-24T07:27:00.635Z,5.10
2022-08-24T07:29:48.532Z,5.20
2022-08-24T07:32:18.276Z,5.20
2022-08-24T07:34:46.442Z,5.17
2022-08-24T07:37:14.524Z,5.20
2022-08-24T07:39:42.705Z,5.20
2022-08-24T07:42:14.733Z,5.17
2022-08-24T07:44:45.404Z,5.17
2022-08-24T07:47:38.603Z,5.10
2022-08-24T07:50:03.173Z,5.10
2022-08-24T07:52:32.175Z,5.20
2022-08-24T07:55:00.784Z,5.10
2022-08-24T07:57:28.997Z,5.13
2022-08-24T07:59:57.025Z,5.20
2022-08-24T08:02:25.270Z,5.13
2022-08-24T08:04:58.154Z,5.60
2022-08-24T08:07:28.597Z,5.13
2022-08-24T08:09:56.656Z,5.17
2022-08-24T08:12:25.106Z,5.13
2022-08-24T08:14:53.201Z,5.20
2022-08-24T08:17:21.320Z,5.10
2022-08-24T08:19:49.385Z,5.10
2022-08-24T08:22:35.020Z,5.17
2022-08-24T08:25:07.982Z,5.17
2022-08-24T08:27:36.692Z,5.10
2022-08-24T08:30:06.925Z,5.13
2022-08-24T08:32:35.054Z,5.10
2022-08-24T08:35:03.530Z,5.13
2022-08-24T08:37:32.158Z,5.07
2022-08-24T08:40:00.698Z,5.10
2022-08-24T08:43:01.880Z,5.10
2022-08-24T08:45:56.292Z,5.10
2022-08-24T08:49:19.400Z,5.00
2022-08-24T08:52:24.575Z,5.10
2022-08-24T08:55:04.422Z,5.07
2022-08-24T08:58:03.860Z,5.07
2022-08-24T09:00:53.576Z,5.10
2022-08-24T09:03:51.247Z,5.07
2022-08-24T09:06:44.711Z,5.10
2022-08-24T09:09:55.323Z,5.07
2022-08-24T09:12:40.558Z,5.03
2022-08-24T09:15:50.366Z,5.00
2022-08-24T09:18:46.080Z,5.07
2022-08-24T09:21:39.831Z,5.23
2022-08-24T09:24:42.335Z,5.10
2022-08-24T09:27:27.872Z,5.03
2022-08-24T09:30:11.237Z,5.10
2022-08-24T09:33:00.172Z,5.00
2022-08-24T09:35:52.087Z,5.00
2022-08-24T09:38:37.016Z,4.93
2022-08-24T09:41:46.423Z,5.00
2022-08-24T09:44:44.634Z,5.00
2022-08-24T09:47:53.457Z,5.40
2022-08-24T09:50:57.770Z,4.90
2022-08-24T09:54:10.417Z,5.00
2022-08-24T09:57:12.588Z,6.53
2022-08-24T10:00:10.191Z,4.90
2022-08-24T10:02:58.434Z,4.83
2022-08-24T10:05:53.523Z,4.80
2022-08-24T10:08:40.968Z,4.80
2022-08-24T10:11:23.103Z,4.90
2022-08-24T10:14:03.952Z,4.90
2022-08-24T10:16:45.592Z,5.00
2022-08-24T10:19:39.730Z,5.00
2022-08-24T10:22:28.730Z,5.00
2022-08-24T10:25:29.060Z,5.00
2022-08-24T10:28:25.498Z,4.90
2022-08-24T10:31:07.790Z,5.00
2022-08-24T10:34:00.856Z,4.93
2022-08-24T10:36:58.100Z,4.83
2022-08-24T10:39:57.732Z,4.90
2022-08-24T10:43:34.757Z,4.90
2022-08-24T10:46:45.405Z,4.93
2022-08-24T10:50:15.931Z,4.80
2022-08-24T10:53:19.850Z,4.80
2022-08-24T10:56:05.580Z,4.77
2022-08-24T10:58:50.969Z,4.80
2022-08-24T11:01:28.908Z,4.83
2022-08-24T11:04:06.780Z,5.20
2022-08-24T11:06:41.402Z,4.63
2022-08-24T11:09:19.458Z,4.90
2022-08-24T11:11:51.071Z,4.50
2022-08-24T11:14:29.452Z,4.60
2022-08-24T11:17:17.880Z,4.63
2022-08-24T11:19:46.559Z,4.63
2022-08-24T11:22:40.642Z,4.70
2022-08-24T11:25:17.711Z,4.70
2022-08-24T11:27:51.466Z,4.67
2022-08-24T11:30:27.810Z,4.63
2022-08-24T11:32:59.851Z,4.60
2022-08-24T11:35:37.397Z,4.50
2022-08-24T11:38:16.637Z,4.57
2022-08-24T11:40:52.935Z,4.50
2022-08-24T11:43:37.014Z,4.37
2022-08-24T11:46:18.173Z,4.40
2022-08-24T11:49:03.418Z,4.37
2022-08-24T11:51:44.595Z,4.20
2022-08-24T11:54:25.982Z,4.20
2022-08-24T11:57:10.669Z,4.00
2022-08-24T11:59:51.744Z,3.80
2022-08-24T12:02:29.572Z,3.77
2022-08-24T12:05:07.905Z,3.90
2022-08-24T12:07:54.207Z,3.80
2022-08-24T12:10:37.533Z,3.70
2022-08-24T12:13:17.381Z,4.43
2022-08-24T12:15:55.253Z,3.50
2022-08-24T12:18:34.602Z,3.50
2022-08-24T12:21:03.286Z,3.20
2022-08-24T12:23:39.073Z,3.67
2022-08-24T12:26:14.530Z,3.40
2022-08-24T12:28:54.295Z,3.00
2022-08-24T12:31:37.150Z,2.83
2022-08-24T12:34:17.646Z,2.70
2022-08-24T12:37:00.423Z,2.55
2022-08-24T12:39:34.941Z,2.40
2022-08-24T12:42:17.200Z,2.22
2022-08-24T12:44:55.868Z,2.42
2022-08-24T12:47:31.595Z,2.63
2022-08-24T12:50:11.108Z,2.90
2022-08-24T12:53:21.881Z,3.20
2022-08-24T12:56:51.590Z,3.58
2022-08-24T12:59:24.807Z,3.80
2022-08-24T13:02:04.499Z,3.60
2022-08-24T13:04:40.398Z,3.50
2022-08-24T13:07:27.427Z,3.17
2022-08-24T13:10:14.557Z,3.00
2022-08-24T13:13:10.242Z,2.70
2022-08-24T13:16:03.442Z,2.60
2022-08-24T13:19:15.893Z,2.40
2022-08-24T13:21:57.214Z,2.20
2022-08-24T13:24:45.045Z,2.08
2022-08-24T13:28:01.971Z,3.30
2022-08-24T13:30:58.689Z,1.90
2022-08-24T13:33:33.388Z,2.08
2022-08-24T13:36:28.587Z,1.90
2022-08-24T13:39:19.344Z,1.80
2022-08-24T13:42:07.315Z,1.70
2022-08-24T13:45:22.910Z,1.60
2022-08-24T13:48:12.226Z,1.58
2022-08-24T13:51:13.427Z,1.70
2022-08-24T13:54:16.075Z,1.50
2022-08-24T13:57:27.556Z,1.60
2022-08-24T14:00:34.937Z,1.90
2022-08-24T14:03:36.920Z,2.40
2022-08-24T14:06:28.575Z,2.90
2022-08-24T14:09:22.083Z,3.05
2022-08-24T14:12:22.827Z,3.50
2022-08-24T14:15:16.129Z,3.80
2022-08-24T14:18:03.816Z,3.90
2022-08-24T14:21:02.711Z,4.13
2022-08-24T14:23:56.193Z,4.30
2022-08-24T14:27:08.166Z,4.40
2022-08-24T14:29:46.937Z,4.50
2022-08-24T14:32:44.873Z,4.60
2022-08-24T14:35:36.159Z,4.40
2022-08-24T14:38:48.818Z,4.20
2022-08-24T14:41:33.598Z,3.70
2022-08-24T14:44:50.545Z,3.28
2022-08-24T14:47:37.705Z,3.00
2022-08-24T14:50:14.852Z,2.72
2022-08-24T14:53:01.839Z,2.60
2022-08-24T14:55:39.156Z,2.40
2022-08-24T14:58:29.129Z,2.70
2022-08-24T15:01:34.170Z,2.30
2022-08-24T15:04:38.176Z,2.20
2022-08-24T15:07:27.913Z,2.20
2022-08-24T15:09:58.816Z,2.20
2022-08-24T15:12:42.666Z,2.85
2022-08-24T15:15:18.995Z,2.17
2022-08-24T15:18:01.143Z,2.10
2022-08-24T15:20:54.413Z,2.10
2022-08-24T15:23:41.870Z,2.10
2022-08-24T15:26:19.264Z,2.10
2022-08-24T15:28:56.325Z,2.10
2022-08-24T15:31:30.120Z,2.22
2022-08-24T15:34:02.712Z,2.60
2022-08-24T15:36:34.027Z,2.70
2022-08-24T15:39:05.692Z,2.90
2022-08-24T15:41:38.927Z,2.70
2022-08-24T15:44:21.396Z,2.65
2022-08-24T15:46:57.243Z,2.60
2022-08-24T15:49:30.127Z,2.60
2022-08-24T15:52:02.722Z,2.60
2022-08-24T15:54:38.732Z,2.60
2022-08-24T15:57:27.049Z,2.70
2022-08-24T16:00:08.340Z,2.95
2022-08-24T16:02:38.705Z,3.20
2022-08-24T16:05:36.869Z,3.45
2022-08-24T16:08:13.454Z,3.65
2022-08-24T16:10:45.210Z,3.83
2022-08-24T16:13:28.237Z,4.53
2022-08-24T16:16:06.009Z,3.63
2022-08-24T16:18:53.191Z,3.58
2022-08-24T16:21:34.407Z,3.50
2022-08-24T16:24:08.118Z,3.50
2022-08-24T16:26:56.371Z,3.30
2022-08-24T16:29:55.720Z,3.30
2022-08-24T16:32:49.503Z,3.28
2022-08-24T16:35:20.907Z,3.22
2022-08-24T16:37:52.061Z,3.20
2022-08-24T16:40:20.926Z,3.20
2022-08-24T16:42:50.296Z,3.20
2022-08-24T16:45:22.277Z,3.20
2022-08-24T16:47:51.699Z,3.22
2022-08-24T16:50:22.117Z,3.22
2022-08-24T16:52:56.855Z,3.30
2022-08-24T16:55:25.192Z,3.58
2022-08-24T16:57:53.248Z,3.87
2022-08-24T17:00:22.192Z,4.13
2022-08-24T17:02:50.964Z,4.30
2022-08-24T17:05:19.703Z,4.43
2022-08-24T17:07:48.216Z,4.60
2022-08-24T17:10:23.077Z,4.67
2022-08-24T17:12:51.280Z,4.70
2022-08-24T17:15:20.100Z,4.83
2022-08-24T17:17:58.058Z,5.00
2022-08-24T17:20:26.256Z,5.00
2022-08-24T17:22:54.292Z,5.10
2022-08-24T17:25:24.826Z,5.10
2022-08-24T17:27:54.743Z,5.30
2022-08-24T17:30:24.366Z,5.20
2022-08-24T17:32:53.306Z,5.30
2022-08-24T17:35:22.985Z,5.30
2022-08-24T17:37:53.239Z,5.30
2022-08-24T17:40:25.715Z,5.40
2022-08-24T17:42:54.302Z,5.37
2022-08-24T17:45:23.329Z,5.43
2022-08-24T17:47:52.768Z,5.40
2022-08-24T17:50:24.193Z,5.47
2022-08-24T17:53:06.486Z,5.50
2022-08-24T17:55:36.019Z,5.43
2022-08-24T17:58:04.293Z,5.70
2022-08-24T18:00:32.441Z,5.50
2022-08-24T18:03:00.677Z,5.50
2022-08-24T18:05:29.432Z,5.50
2022-08-24T18:07:57.779Z,5.50
2022-08-24T18:10:28.926Z,5.57
2022-08-24T18:12:59.520Z,5.53
2022-08-24T18:15:35.618Z,5.67
2022-08-24T18:18:11.670Z,5.57
2022-08-24T18:20:42.415Z,5.60
2022-08-24T18:23:11.870Z,5.57
2022-08-24T18:25:47.995Z,5.70
2022-08-24T18:28:21.854Z,5.50
2022-08-24T18:30:52.119Z,5.63
2022-08-24T18:33:20.303Z,5.63
2022-08-24T18:35:48.556Z,5.50
2022-08-24T18:38:16.661Z,5.60
2022-08-24T18:40:52.243Z,5.53
2022-08-24T18:43:25.007Z,5.60
2022-08-24T18:45:54.273Z,5.63
2022-08-24T18:48:23.374Z,5.57
2022-08-24T18:50:52.955Z,5.60
2022-08-24T18:53:23.416Z,5.63
2022-08-24T18:55:51.978Z,5.67
2022-08-24T18:58:20.740Z,5.60
2022-08-24T19:00:51.560Z,5.60
2022-08-24T19:03:24.641Z,5.57
2022-08-24T19:05:52.718Z,5.67
2022-08-24T19:08:21.072Z,5.60
2022-08-24T19:10:49.234Z,5.60
2022-08-24T19:13:18.967Z,5.60
2022-08-24T19:15:48.685Z,5.70
2022-08-24T19:18:21.826Z,5.67
2022-08-24T19:20:54.131Z,5.50
2022-08-24T19:23:25.960Z,5.67
2022-08-24T19:25:55.528Z,5.67
2022-08-24T19:28:26.288Z,5.67
2022-08-24T19:30:56.643Z,9.57
2022-08-24T19:33:30.191Z,5.60
2022-08-24T19:36:00.143Z,5.70
2022-08-24T19:38:28.305Z,5.63
2022-08-24T19:40:58.778Z,5.60
2022-08-24T19:43:28.901Z,5.60
2022-08-24T19:46:06.291Z,5.60
2022-08-24T19:48:39.601Z,5.60
2022-08-24T19:51:13.877Z,5.63
2022-08-24T19:53:42.904Z,5.57
2022-08-24T19:56:11.437Z,5.60
2022-08-24T19:58:46.606Z,5.63
2022-08-24T20:01:20.158Z,5.60
2022-08-24T20:03:50.402Z,5.60
2022-08-24T20:06:22.046Z,5.70
2022-08-24T20:08:51.436Z,5.60
2022-08-24T20:11:20.661Z,5.67
2022-08-24T20:13:54.452Z,5.60
2022-08-24T20:16:25.581Z,5.70
2022-08-24T20:18:55.423Z,5.60
2022-08-24T20:21:27.184Z,5.60
2022-08-24T20:24:00.360Z,5.63
2022-08-24T20:26:31.137Z,5.60
2022-08-24T20:28:59.666Z,5.60
2022-08-24T20:31:28.968Z,5.60
2022-08-24T20:33:58.564Z,5.60
2022-08-24T20:36:33.789Z,5.60
2022-08-24T20:39:05.788Z,5.53
2022-08-24T20:41:35.650Z,5.57
2022-08-24T20:44:05.266Z,5.50
2022-08-24T20:46:33.555Z,5.60
2022-08-24T20:49:03.360Z,5.50
2022-08-24T20:51:31.437Z,5.60
2022-08-24T20:54:01.590Z,5.53
2022-08-24T20:56:32.595Z,5.57
2022-08-24T20:59:03.303Z,5.60
